»·PEaware :: N816LT KBFL-KMHV

N816LT :: KBFL-KMHV

FLIGHT INFORMATION

Flight Status: Arrived
Operator: Privately registered:
United States
More flights under this callsign
Pilot: Chris P. (26744)
Aircraft: CESSNA 172 SKYHAWK
(C172)
More flights by this aircraft type
Origin: KBFL Meadows
United States
Destination: KMHV Mojave
United States
More flights between these airports :: More routes between these airports
Route: +
File this flight plan on PilotEdge
Remarks:
Altitude:
(Current/Filed)
0ft
Speed:
(Current/Filed)
0kts
Departed: 13-Feb-20 05:32 PM
Arrived: 13-Feb-20 06:34 PM
Distance/Time
Traveled:
50nm/1:01
Distance/Time
To Go:
Arrived

Flight Plot

Page will automatically refresh every two minutes.


Map Options




Map Legend


Flown Route
Filed Route
Departure Airport
Arrival Airport
Navaid (VOR, NDB)
Fix

Horizontal Profiles

Position Reports

Time Latitude Longitude Heading Altitude Ground
Speed
13-Feb-20 17:17 35.437581 -119.055247 273 509ft 0kts
13-Feb-20 17:18 35.437581 -119.055247 273 509ft 0kts
13-Feb-20 17:19 35.437581 -119.055247 273 509ft 0kts
13-Feb-20 17:20 35.437586 -119.055446 269 507ft 9kts
13-Feb-20 17:21 35.437070 -119.057696 177 499ft 22kts
13-Feb-20 17:22 35.435577 -119.056101 139 496ft 17kts
13-Feb-20 17:23 35.434464 -119.054733 136 497ft 15kts
13-Feb-20 17:24 35.433282 -119.053302 135 498ft 21kts
13-Feb-20 17:25 35.431609 -119.051361 134 496ft 28kts
13-Feb-20 17:26 35.429552 -119.048851 139 496ft 35kts
13-Feb-20 17:27 35.427133 -119.045868 135 489ft 40kts
13-Feb-20 17:28 35.425850 -119.044556 187 485ft 8kts
13-Feb-20 17:29 35.425649 -119.044726 242 483ft 1kts
13-Feb-20 17:30 35.426019 -119.046739 314 481ft 33kts
13-Feb-20 17:31 35.431216 -119.053056 313 618ft 80kts
13-Feb-20 17:32 35.437878 -119.061410 313 1008ft 81kts
13-Feb-20 17:33 35.446208 -119.067647 5 1445ft 78kts
13-Feb-20 17:34 35.454456 -119.059978 69 1879ft 77kts
13-Feb-20 17:35 35.452373 -119.049917 128 2229ft 76kts
13-Feb-20 17:36 35.447178 -119.042665 131 2535ft 76kts
13-Feb-20 17:37 35.441896 -119.035487 131 2835ft 75kts
13-Feb-20 17:38 35.436681 -119.028403 131 3126ft 75kts
13-Feb-20 17:39 35.431417 -119.021246 131 3413ft 75kts
13-Feb-20 17:40 35.427444 -119.012994 117 3693ft 75kts
13-Feb-20 17:41 35.423864 -119.004486 117 3968ft 74kts
13-Feb-20 17:42 35.420299 -118.996002 117 4235ft 74kts
13-Feb-20 17:43 35.416738 -118.987524 117 4498ft 74kts
13-Feb-20 17:44 35.412841 -118.978248 117 4779ft 74kts
13-Feb-20 17:45 35.408595 -118.968142 117 5078ft 73kts
13-Feb-20 17:46 35.404012 -118.957233 117 5392ft 73kts
13-Feb-20 17:47 35.399365 -118.946173 117 5703ft 73kts
13-Feb-20 17:48 35.394695 -118.935056 117 6006ft 73kts
13-Feb-20 17:49 35.390047 -118.923990 117 6301ft 72kts
13-Feb-20 17:50 35.385437 -118.913009 117 6584ft 72kts
13-Feb-20 17:51 35.380808 -118.901984 117 6862ft 72kts
13-Feb-20 17:52 35.376107 -118.890785 117 7135ft 72kts
13-Feb-20 17:53 35.371161 -118.879000 117 7410ft 72kts
13-Feb-20 17:54 35.365077 -118.864558 117 7454ft 103kts
13-Feb-20 17:55 35.357240 -118.846089 117 7448ft 119kts
13-Feb-20 17:56 35.348643 -118.825853 117 7445ft 125kts
13-Feb-20 17:57 35.340137 -118.805832 117 7445ft 126kts
13-Feb-20 17:58 35.331957 -118.786576 117 7445ft 127kts
13-Feb-20 17:59 35.323967 -118.767765 117 7445ft 127kts
13-Feb-20 18:00 35.315933 -118.748847 117 7445ft 127kts
13-Feb-20 18:01 35.307845 -118.729797 117 7445ft 127kts
13-Feb-20 18:02 35.299593 -118.710361 117 7445ft 127kts
13-Feb-20 18:03 35.290824 -118.689704 117 7445ft 127kts
13-Feb-20 18:04 35.281989 -118.668887 117 7445ft 127kts
13-Feb-20 18:05 35.273387 -118.648617 117 7445ft 127kts
13-Feb-20 18:06 35.265141 -118.629181 117 7445ft 127kts
13-Feb-20 18:07 35.256855 -118.609650 117 7445ft 127kts
13-Feb-20 18:08 35.248585 -118.590151 117 7445ft 127kts
13-Feb-20 18:09 35.240179 -118.570331 117 7445ft 127kts
13-Feb-20 18:10 35.231627 -118.550164 117 7400ft 129kts
13-Feb-20 18:11 35.223373 -118.530697 117 7399ft 128kts
13-Feb-20 18:12 35.215132 -118.511258 117 7399ft 127kts
13-Feb-20 18:13 35.206951 -118.491956 116 7399ft 127kts
13-Feb-20 18:14 35.198750 -118.472602 116 7399ft 127kts
13-Feb-20 18:15 35.190578 -118.453317 116 7399ft 127kts
13-Feb-20 18:16 35.182368 -118.433936 116 7399ft 127kts
13-Feb-20 18:17 35.174213 -118.414685 116 7399ft 127kts
13-Feb-20 18:18 35.165937 -118.395145 116 7399ft 127kts
13-Feb-20 18:19 35.157091 -118.374253 116 7399ft 127kts
13-Feb-20 18:20 35.148314 -118.353523 116 7399ft 127kts
13-Feb-20 18:21 35.139579 -118.332890 117 7399ft 127kts
13-Feb-20 18:22 35.130738 -118.311999 117 7399ft 127kts
13-Feb-20 18:23 35.121827 -118.290955 117 7182ft 136kts
13-Feb-20 18:24 35.113109 -118.270218 115 6815ft 133kts
13-Feb-20 18:25 35.105078 -118.249538 114 6270ft 132kts
13-Feb-20 18:26 35.097797 -118.228304 111 5611ft 126kts
13-Feb-20 18:27 35.092055 -118.208312 104 5049ft 89kts
13-Feb-20 18:28 35.088681 -118.193927 108 4326ft 79kts
13-Feb-20 18:29 35.084723 -118.180925 114 3758ft 66kts
13-Feb-20 18:30 35.079068 -118.172154 137 3380ft 62kts
13-Feb-20 18:31 35.072345 -118.165226 129 3044ft 60kts
13-Feb-20 18:32 35.067086 -118.158084 130 2789ft 43kts
13-Feb-20 18:33 35.064831 -118.156406 231 2780ft 7kts
13-Feb-20 18:34 35.064274 -118.156935 158 2779ft 9kts
13-Feb-20 18:35 35.062663 -118.156602 195 2776ft 14kts
13-Feb-20 18:36 35.060591 -118.157293 196 2773ft 15kts
13-Feb-20 18:37 35.058077 -118.157836 185 2766ft 18kts
13-Feb-20 18:38 35.057258 -118.157773 166 2765ft 0kts
13-Feb-20 18:39 35.057258 -118.157773 166 2765ft 0kts

Navigation Log

Ident Type
Flight plan parsing failed, navigation log unavailable